Time;durP1;ratioP1;P1;durP2;ratioP2;P2;SDS_P1;SDS_P2;PMS_P1;PMS_P2;Temp;Humidity;BMP_temperature;BMP_pressure;BME280_temperature;BME280_humidity;BME280_pressure;Samples;Min_cycle;Max_cycle;Signal;HPM_P1;HPM_P2
2023/11/27 00:01:40;;;;;;;;;;;;;;;0.15;82.81;100603.75;4220807;28;20031;-72
2023/11/27 00:03:42;;;;;;;;;;;;;;;0.12;82.71;100617.28;4221395;28;20026;-72
2023/11/27 00:05:44;;;;;;;;;;;;;;;0.11;82.48;100599.66;4221880;28;20468;-72
2023/11/27 00:07:46;;;;;;;;;;;;;;;0.11;82.69;100596.13;4220764;28;20020;-72
2023/11/27 00:09:48;;;;;;;;;;;;;;;0.14;82.79;100595.91;4220388;28;20022;-71
2023/11/27 00:11:51;;;;;;;;;;;;;;;0.15;82.99;100597.63;4221519;28;20018;-72
2023/11/27 00:13:53;;;;;;;;;;;;;;;0.15;82.98;100587.84;4221729;28;20022;-72
2023/11/27 00:15:54;;;;;;;;;;;;;;;0.16;82.93;100597.50;4221438;28;19928;-71
2023/11/27 00:17:56;;;;;;;;;;;;;;;0.16;83.05;100594.84;4219473;28;19928;-72
2023/11/27 00:19:58;;;;;;;;;;;;;;;0.17;82.95;100593.91;4221039;28;20641;-72
2023/11/27 00:22:00;;;;;;;;;;;;;;;0.15;82.79;100594.97;4220897;28;20382;-71
2023/11/27 00:24:02;;;;;;;;;;;;;;;0.12;82.60;100593.38;4221368;28;20022;-71
2023/11/27 00:26:04;;;;;;;;;;;;;;;0.12;82.86;100603.16;4220518;28;20020;-72
2023/11/27 00:28:07;;;;;;;;;;;;;;;0.14;82.99;100599.44;4221107;28;20061;-72
2023/11/27 00:30:10;;;;;;;;;;;;;;;0.12;83.13;100600.50;4219776;28;20019;-71
2023/11/27 00:32:11;;;;;;;;;;;;;;;0.10;83.11;100594.47;4219891;28;20022;-71
2023/11/27 00:34:13;;;;;;;;;;;;;;;0.09;83.09;100598.06;4219720;28;19932;-71
2023/11/27 00:36:14;;;;;;;;;;;;;;;0.06;82.98;100596.47;4220823;28;19978;-71
2023/11/27 00:38:16;;;;;;;;;;;;;;;0.05;83.00;100594.78;4221392;28;19924;-71
2023/11/27 00:40:18;;;;;;;;;;;;;;;0.05;83.25;100596.59;4219992;28;20018;-71
2023/11/27 00:42:22;;;;;;;;;;;;;;;0.06;83.22;100603.59;4221039;28;20015;-71
2023/11/27 00:44:28;;;;;;;;;;;;;;;0.05;83.48;100592.16;4220404;28;20023;-71
2023/11/27 00:46:29;;;;;;;;;;;;;;;0.05;83.60;100585.97;4220547;28;20030;-71
2023/11/27 00:48:31;;;;;;;;;;;;;;;0.07;83.63;100592.03;4220301;28;20447;-72
2023/11/27 00:50:32;;;;;;;;;;;;;;;0.07;83.92;100595.53;4235255;27;20019;-72
2023/11/27 00:52:34;;;;;;;;;;;;;;;0.07;83.83;100586.72;4221152;28;19924;-71
2023/11/27 00:54:36;;;;;;;;;;;;;;;0.06;83.88;100593.81;4218716;28;20055;-71
2023/11/27 00:56:39;;;;;;;;;;;;;;;0.07;84.00;100584.06;4217457;28;20043;-72
2023/11/27 00:58:41;;;;;;;;;;;;;;;0.06;83.94;100577.88;4220913;28;20366;-71
2023/11/27 01:00:45;;;;;;;;;;;;;;;0.12;83.93;100585.41;4218278;28;20441;-72
2023/11/27 01:02:47;;;;;;;;;;;;;;;0.14;83.91;100587.94;4218858;28;20015;-71
2023/11/27 01:04:48;;;;;;;;;;;;;;;0.15;84.16;100584.34;4218721;28;20011;-72
2023/11/27 01:06:51;;;;;;;;;;;;;;;0.12;84.04;100582.75;4221436;28;20470;-72
2023/11/27 01:08:53;;;;;;;;;;;;;;;0.13;83.84;100581.78;4221077;28;20358;-72
2023/11/27 01:10:54;;;;;;;;;;;;;;;0.12;84.00;100574.78;4219409;28;19927;-71
2023/11/27 01:12:59;;;;;;;;;;;;;;;0.14;83.86;100577.31;4217490;28;20618;-71
2023/11/27 01:15:01;;;;;;;;;;;;;;;0.13;84.08;100580.97;4220096;27;20014;-71
2023/11/27 01:17:05;;;;;;;;;;;;;;;0.13;84.25;100578.31;4220405;28;20430;-72
2023/11/27 01:19:08;;;;;;;;;;;;;;;0.14;84.26;100574.66;4220414;28;20006;-71
2023/11/27 01:21:09;;;;;;;;;;;;;;;0.15;84.07;100579.88;4202581;28;20023;-71
2023/11/27 01:23:11;;;;;;;;;;;;;;;0.16;84.26;100573.59;4220485;28;20014;-71
2023/11/27 01:25:12;;;;;;;;;;;;;;;0.18;84.20;100570.81;4219989;28;20018;-71
2023/11/27 01:27:14;;;;;;;;;;;;;;;0.22;84.22;100568.78;4220005;28;20034;-71
2023/11/27 01:29:16;;;;;;;;;;;;;;;0.23;84.40;100560.69;4220052;28;20015;-71
2023/11/27 01:31:21;;;;;;;;;;;;;;;0.26;84.38;100564.94;4220458;28;20018;-71
2023/11/27 01:33:25;;;;;;;;;;;;;;;0.27;84.29;100561.34;4219908;28;20011;-71
2023/11/27 01:35:27;;;;;;;;;;;;;;;0.28;84.37;100557.69;4220722;28;20023;-71
2023/11/27 01:37:29;;;;;;;;;;;;;;;0.28;84.19;100552.38;4220447;28;20542;-71
2023/11/27 01:39:30;;;;;;;;;;;;;;;0.29;84.23;100554.94;4218146;28;20011;-71
2023/11/27 01:41:33;;;;;;;;;;;;;;;0.31;84.21;100558.34;4217325;28;19932;-71
2023/11/27 01:43:35;;;;;;;;;;;;;;;0.32;84.17;100560.00;4220823;28;20012;-72
2023/11/27 01:45:38;;;;;;;;;;;;;;;0.33;84.09;100561.72;4202737;28;20020;-72
2023/11/27 01:47:40;;;;;;;;;;;;;;;0.34;84.22;100558.06;4218572;28;20014;-71
2023/11/27 01:49:44;;;;;;;;;;;;;;;0.34;84.32;100546.63;4219556;28;20014;-71
2023/11/27 01:51:46;;;;;;;;;;;;;;;0.35;84.43;100546.50;4218364;28;20011;-71
2023/11/27 01:53:50;;;;;;;;;;;;;;;0.35;84.29;100549.16;4218807;28;20022;-72
2023/11/27 01:55:53;;;;;;;;;;;;;;;0.35;84.29;100535.88;4219800;28;20018;-71
2023/11/27 01:57:54;;;;;;;;;;;;;;;0.35;84.36;100541.19;4218145;28;19924;-71
2023/11/27 01:59:56;;;;;;;;;;;;;;;0.38;84.61;100541.91;4217551;28;20370;-71
2023/11/27 02:01:59;;;;;;;;;;;;;;;0.37;84.42;100542.88;4217485;28;20023;-71
2023/11/27 02:04:02;;;;;;;;;;;;;;;0.37;84.71;100538.41;4218921;28;20014;-71
2023/11/27 02:06:06;;;;;;;;;;;;;;;0.37;84.57;100537.56;4217529;28;20018;-71
2023/11/27 02:08:07;;;;;;;;;;;;;;;0.39;84.69;100539.13;4219789;28;20022;-72
2023/11/27 02:10:10;;;;;;;;;;;;;;;0.40;84.55;100540.00;4219175;28;20027;-71
2023/11/27 02:12:11;;;;;;;;;;;;;;;0.40;84.90;100537.34;4218417;28;20023;-71
2023/11/27 02:14:16;;;;;;;;;;;;;;;0.42;84.88;100535.41;4219345;28;20019;-71
2023/11/27 02:16:17;;;;;;;;;;;;;;;0.43;84.87;100531.81;4219622;28;20007;-71
2023/11/27 02:18:19;;;;;;;;;;;;;;;0.43;84.87;100535.28;4219180;28;19966;-71
2023/11/27 02:20:21;;;;;;;;;;;;;;;0.43;84.83;100537.13;4217913;28;20014;-72
2023/11/27 02:22:25;;;;;;;;;;;;;;;0.45;84.73;100532.53;4234382;27;20015;-72
2023/11/27 02:24:28;;;;;;;;;;;;;;;0.47;84.71;100538.56;4202324;28;20023;-72
2023/11/27 02:26:32;;;;;;;;;;;;;;;0.49;84.83;100534.84;4217166;28;20687;-71
2023/11/27 02:28:33;;;;;;;;;;;;;;;0.51;85.01;100532.06;4218174;28;20027;-71
2023/11/27 02:30:35;;;;;;;;;;;;;;;0.51;85.00;100524.09;4218235;28;20019;-72
2023/11/27 02:32:37;;;;;;;;;;;;;;;0.52;84.94;100528.44;4217693;28;20027;-71
2023/11/27 02:34:39;;;;;;;;;;;;;;;0.52;84.93;100533.75;4217283;28;20011;-71
2023/11/27 02:36:41;;;;;;;;;;;;;;;0.51;84.67;100532.06;4218371;28;20023;-72
2023/11/27 02:38:43;;;;;;;;;;;;;;;0.49;84.61;100523.38;4219680;28;19928;-72
2023/11/27 02:40:46;;;;;;;;;;;;;;;0.47;84.77;100522.63;4219266;28;20015;-71
2023/11/27 02:42:48;;;;;;;;;;;;;;;0.47;85.05;100520.81;4202001;28;20021;-71
2023/11/27 02:44:50;;;;;;;;;;;;;;;0.48;85.04;100524.31;4219306;28;20015;-72
2023/11/27 02:46:52;;;;;;;;;;;;;;;0.50;85.03;100523.25;4218963;28;20031;-72
2023/11/27 02:48:54;;;;;;;;;;;;;;;0.53;84.91;100519.50;4217775;28;20018;-71
2023/11/27 02:50:56;;;;;;;;;;;;;;;0.51;84.95;100518.78;4218201;28;20510;-71
2023/11/27 02:52:57;;;;;;;;;;;;;;;0.51;85.28;100522.25;4219572;28;20028;-71
2023/11/27 02:55:00;;;;;;;;;;;;;;;0.51;85.03;100510.78;4218393;28;20022;-72
2023/11/27 02:57:03;;;;;;;;;;;;;;;0.52;85.16;100515.16;4218447;28;20027;-72
2023/11/27 02:59:05;;;;;;;;;;;;;;;0.52;85.06;100510.69;4218979;28;20368;-72
2023/11/27 03:01:08;;;;;;;;;;;;;;;0.52;85.17;100510.69;4217967;28;20023;-72
2023/11/27 03:03:10;;;;;;;;;;;;;;;0.50;85.10;100515.28;4219548;28;20023;-71
2023/11/27 03:05:11;;;;;;;;;;;;;;;0.52;85.30;100510.69;4218294;28;20035;-71
2023/11/27 03:07:15;;;;;;;;;;;;;;;0.53;85.38;100506.19;4218605;28;20027;-72
2023/11/27 03:09:17;;;;;;;;;;;;;;;0.54;85.11;100507.91;4218010;28;20481;-72
2023/11/27 03:11:19;;;;;;;;;;;;;;;0.56;85.28;100500.66;4219496;28;20373;-72
2023/11/27 03:13:21;;;;;;;;;;;;;;;0.59;84.91;100500.41;4218867;28;20022;-72
2023/11/27 03:15:23;;;;;;;;;;;;;;;0.61;85.05;100495.84;4218478;28;20399;-72
2023/11/27 03:17:25;;;;;;;;;;;;;;;0.60;84.90;100494.16;4217713;28;20502;-71
2023/11/27 03:19:26;;;;;;;;;;;;;;;0.60;85.06;100483.50;4217918;28;20019;-71
2023/11/27 03:21:28;;;;;;;;;;;;;;;0.61;84.89;100492.31;4199944;28;19998;-71
2023/11/27 03:23:30;;;;;;;;;;;;;;;0.60;84.70;100496.81;4218832;28;20014;-71
2023/11/27 03:25:33;;;;;;;;;;;;;;;0.62;85.03;100484.22;4218029;28;20015;-71
2023/11/27 03:27:37;;;;;;;;;;;;;;;0.63;85.05;100485.09;4219582;28;20023;-71
2023/11/27 03:29:40;;;;;;;;;;;;;;;0.63;84.88;100483.28;4219026;28;20016;-71
2023/11/27 03:31:42;;;;;;;;;;;;;;;0.59;85.01;100476.50;4218263;28;20015;-72
2023/11/27 03:33:44;;;;;;;;;;;;;;;0.64;84.92;100492.97;4219680;28;20018;-72
2023/11/27 03:35:45;;;;;;;;;;;;;;;0.65;84.82;100491.13;4219409;28;20524;-72
2023/11/27 03:37:46;;;;;;;;;;;;;;;0.63;84.93;100485.94;4218950;28;19934;-72
2023/11/27 03:39:50;;;;;;;;;;;;;;;0.63;84.95;100477.97;4218674;28;20364;-72
2023/11/27 03:41:51;;;;;;;;;;;;;;;0.64;84.93;100474.34;4220426;28;20027;-72
2023/11/27 03:43:54;;;;;;;;;;;;;;;0.64;84.95;100479.66;4220499;28;20010;-71
2023/11/27 03:45:57;;;;;;;;;;;;;;;0.64;84.88;100479.66;4221335;28;20030;-72
2023/11/27 03:47:59;;;;;;;;;;;;;;;0.65;84.91;100476.03;4237954;27;20026;-72
2023/11/27 03:50:01;;;;;;;;;;;;;;;0.64;84.67;100474.34;4222791;28;20302;-72
2023/11/27 03:52:04;;;;;;;;;;;;;;;0.65;84.76;100459.25;4220082;28;20014;-72
2023/11/27 03:54:06;;;;;;;;;;;;;;;0.63;84.51;100467.31;4221268;28;20007;-71
2023/11/27 03:56:09;;;;;;;;;;;;;;;0.64;84.59;100476.13;4221144;28;20035;-71
2023/11/27 03:58:11;;;;;;;;;;;;;;;0.62;84.57;100467.44;4221837;28;20023;-72
2023/11/27 04:00:13;;;;;;;;;;;;;;;0.62;84.55;100470.09;4204298;28;19928;-72
2023/11/27 04:02:16;;;;;;;;;;;;;;;0.62;84.59;100473.59;4204039;28;20454;-72
2023/11/27 04:04:20;;;;;;;;;;;;;;;0.62;84.45;100473.59;4237473;27;20021;-71
2023/11/27 04:06:22;;;;;;;;;;;;;;;0.62;84.63;100475.41;4221576;28;20047;-72
2023/11/27 04:08:24;;;;;;;;;;;;;;;0.62;84.49;100475.41;4220971;28;20027;-72
2023/11/27 04:10:26;;;;;;;;;;;;;;;0.62;84.57;100472.75;4220567;28;20014;-72
2023/11/27 04:12:32;;;;;;;;;;;;;;;0.61;84.57;100474.59;4220857;28;20040;-72
2023/11/27 04:14:35;;;;;;;;;;;;;;;0.60;84.72;100470.22;4221349;28;20051;-72
2023/11/27 04:16:37;;;;;;;;;;;;;;;0.59;84.64;100463.22;4220806;28;20485;-72
2023/11/27 04:18:40;;;;;;;;;;;;;;;0.60;84.66;100464.91;4221751;28;20425;-72
2023/11/27 04:20:43;;;;;;;;;;;;;;;0.60;84.61;100470.22;4219938;28;19932;-72
2023/11/27 04:22:46;;;;;;;;;;;;;;;0.61;84.55;100463.97;4237491;27;20027;-72
2023/11/27 04:24:48;;;;;;;;;;;;;;;0.60;84.61;100464.91;4220872;28;20019;-72
2023/11/27 04:26:50;;;;;;;;;;;;;;;0.59;84.60;100468.53;4221351;28;20027;-72
2023/11/27 04:28:52;;;;;;;;;;;;;;;0.58;84.36;100465.97;4221641;28;20010;-72
2023/11/27 04:30:56;;;;;;;;;;;;;;;0.58;84.67;100463.31;4220377;28;20019;-72
2023/11/27 04:32:58;;;;;;;;;;;;;;;0.59;84.60;100467.69;4219514;28;20486;-72
2023/11/27 04:35:01;;;;;;;;;;;;;;;0.58;84.53;100460.66;4220403;28;20018;-72
2023/11/27 04:37:05;;;;;;;;;;;;;;;0.59;84.58;100463.22;4221147;28;20018;-72
2023/11/27 04:39:10;;;;;;;;;;;;;;;0.59;84.98;100457.06;4203396;28;20015;-71
2023/11/27 04:41:12;;;;;;;;;;;;;;;0.60;84.80;100462.25;4220788;28;19924;-71
2023/11/27 04:43:14;;;;;;;;;;;;;;;0.59;84.78;100463.22;4220910;28;20007;-71
2023/11/27 04:45:18;;;;;;;;;;;;;;;0.63;84.71;100456.69;4220845;28;20063;-71
2023/11/27 04:47:20;;;;;;;;;;;;;;;0.64;84.79;100457.53;4220784;28;20062;-72
2023/11/27 04:49:23;;;;;;;;;;;;;;;0.64;84.79;100444.25;4219640;28;20042;-72
2023/11/27 04:51:26;;;;;;;;;;;;;;;0.65;84.90;100444.13;4202426;28;20016;-71
2023/11/27 04:53:29;;;;;;;;;;;;;;;0.66;84.61;100440.50;4218276;28;20027;-72
2023/11/27 04:55:32;;;;;;;;;;;;;;;0.68;84.76;100435.91;4219964;28;20014;-71
2023/11/27 04:57:35;;;;;;;;;;;;;;;0.69;84.65;100437.63;4219849;28;20023;-71
2023/11/27 04:59:36;;;;;;;;;;;;;;;0.69;84.42;100434.94;4218619;28;20030;-71
2023/11/27 05:01:38;;;;;;;;;;;;;;;0.70;84.28;100433.97;4217416;27;19928;-72
2023/11/27 05:03:39;;;;;;;;;;;;;;;0.70;84.27;100433.13;4220025;28;19967;-71
2023/11/27 05:05:42;;;;;;;;;;;;;;;0.70;84.58;100426.00;4220222;28;20027;-71
2023/11/27 05:07:48;;;;;;;;;;;;;;;0.70;84.58;100433.13;4220005;28;20418;-72
2023/11/27 05:09:50;;;;;;;;;;;;;;;0.71;84.45;100437.50;4220504;28;20014;-71
2023/11/27 05:11:52;;;;;;;;;;;;;;;0.70;84.55;100435.78;4219430;28;20036;-72
2023/11/27 05:13:54;;;;;;;;;;;;;;;0.69;84.40;100429.63;4219849;28;20042;-71
2023/11/27 05:15:56;;;;;;;;;;;;;;;0.70;84.53;100435.78;4220126;28;20480;-72
2023/11/27 05:18:00;;;;;;;;;;;;;;;0.71;84.60;100434.84;4220402;28;20011;-72
2023/11/27 05:20:03;;;;;;;;;;;;;;;0.71;84.76;100434.84;4219959;28;20015;-72
2023/11/27 05:22:05;;;;;;;;;;;;;;;0.71;84.34;100435.66;4218625;28;20041;-72
2023/11/27 05:24:08;;;;;;;;;;;;;;;0.73;84.24;100424.09;4217970;28;20003;-72
2023/11/27 05:26:09;;;;;;;;;;;;;;;0.71;84.35;100424.19;4220566;27;20031;-72
2023/11/27 05:28:14;;;;;;;;;;;;;;;0.70;84.19;100422.50;4218742;28;20024;-72
2023/11/27 05:30:16;;;;;;;;;;;;;;;0.70;84.39;100426.00;4217101;28;20091;-72
2023/11/27 05:32:18;;;;;;;;;;;;;;;0.70;84.30;100427.81;4217369;28;20185;-72
2023/11/27 05:34:21;;;;;;;;;;;;;;;0.70;84.34;100417.19;4217996;28;20373;-72
2023/11/27 05:36:24;;;;;;;;;;;;;;;0.70;84.31;100414.53;4217854;28;20051;-72
2023/11/27 05:38:26;;;;;;;;;;;;;;;0.70;84.51;100403.88;4217967;28;20006;-72
2023/11/27 05:40:29;;;;;;;;;;;;;;;0.70;84.51;100407.38;4218278;28;20454;-71
2023/11/27 05:42:36;;;;;;;;;;;;;;;0.71;84.26;100405.59;4218712;28;19924;-72
2023/11/27 05:44:38;;;;;;;;;;;;;;;0.71;84.40;100401.13;4219109;28;20425;-72
2023/11/27 05:46:40;;;;;;;;;;;;;;;0.71;84.29;100392.31;4218641;28;20011;-71
2023/11/27 05:48:42;;;;;;;;;;;;;;;0.70;84.26;100396.75;4217374;28;20014;-72
2023/11/27 05:50:44;;;;;;;;;;;;;;;0.72;84.56;100391.31;4216627;28;20011;-71
2023/11/27 05:52:48;;;;;;;;;;;;;;;0.75;84.36;100400.88;4217738;28;20058;-71
2023/11/27 05:54:50;;;;;;;;;;;;;;;0.75;84.41;100399.03;4217335;28;20018;-71
2023/11/27 05:56:54;;;;;;;;;;;;;;;0.75;84.56;100395.56;4216569;28;20027;-72
2023/11/27 05:58:56;;;;;;;;;;;;;;;0.75;84.44;100393.72;4218795;28;20652;-72
2023/11/27 06:00:58;;;;;;;;;;;;;;;0.76;84.29;100390.13;4216537;28;20018;-72
2023/11/27 06:03:02;;;;;;;;;;;;;;;0.77;84.24;100390.94;4217849;28;20026;-71
2023/11/27 06:05:05;;;;;;;;;;;;;;;0.76;84.27;100395.44;4217003;28;19985;-71
2023/11/27 06:07:07;;;;;;;;;;;;;;;0.75;84.14;100392.91;4217936;28;20019;-71
2023/11/27 06:09:09;;;;;;;;;;;;;;;0.76;84.28;100397.25;4218367;28;20019;-71
2023/11/27 06:11:11;;;;;;;;;;;;;;;0.77;84.32;100378.53;4218270;28;20010;-71
2023/11/27 06:13:14;;;;;;;;;;;;;;;0.77;84.35;100381.19;4216994;28;20035;-72
2023/11/27 06:15:17;;;;;;;;;;;;;;;0.78;84.46;100379.34;4216706;28;20370;-71
2023/11/27 06:17:20;;;;;;;;;;;;;;;0.77;84.32;100389.16;4216938;28;20014;-71
2023/11/27 06:19:22;;;;;;;;;;;;;;;0.79;84.74;100386.38;4217925;28;20357;-71
2023/11/27 06:21:24;;;;;;;;;;;;;;;0.79;84.37;100379.25;4217199;28;20026;-68
2023/11/27 06:23:25;;;;;;;;;;;;;;;0.81;84.39;100389.75;4219153;28;19924;-71
2023/11/27 06:25:27;;;;;;;;;;;;;;;0.81;84.48;100376.47;4219869;28;19928;-71
2023/11/27 06:27:29;;;;;;;;;;;;;;;0.82;84.52;100378.16;4218582;28;20022;-71
2023/11/27 06:29:33;;;;;;;;;;;;;;;0.77;84.26;100372.34;4216996;28;20036;-71
2023/11/27 06:31:35;;;;;;;;;;;;;;;0.84;84.29;100386.84;4199993;28;20035;-71
2023/11/27 06:33:37;;;;;;;;;;;;;;;0.85;84.04;100385.88;4218112;28;20346;-71
2023/11/27 06:35:39;;;;;;;;;;;;;;;0.85;83.94;100385.88;4216827;28;20018;-71
2023/11/27 06:37:41;;;;;;;;;;;;;;;0.85;84.10;100385.88;4217013;28;20023;-71
2023/11/27 06:39:43;;;;;;;;;;;;;;;0.85;83.94;100375.25;4216507;28;20370;-71
2023/11/27 06:41:45;;;;;;;;;;;;;;;0.85;84.12;100369.94;4216325;28;20031;-71
2023/11/27 06:43:46;;;;;;;;;;;;;;;0.85;84.14;100369.94;4217327;28;19932;-71
2023/11/27 06:45:52;;;;;;;;;;;;;;;0.86;84.02;100371.59;4215220;28;20030;-72
2023/11/27 06:47:54;;;;;;;;;;;;;;;0.87;84.05;100371.47;4218299;28;20050;-72
2023/11/27 06:49:56;;;;;;;;;;;;;;;0.87;83.91;100370.66;4219017;28;20015;-72
2023/11/27 06:51:58;;;;;;;;;;;;;;;0.86;83.88;100363.63;4218944;28;20042;-72
2023/11/27 06:54:00;;;;;;;;;;;;;;;0.87;84.03;100366.16;4218637;28;20014;-71
2023/11/27 06:56:02;;;;;;;;;;;;;;;0.88;83.96;100369.69;4218130;28;20401;-71
2023/11/27 06:58:04;;;;;;;;;;;;;;;0.89;84.14;100374.03;4219007;28;20023;-71
2023/11/27 07:00:10;;;;;;;;;;;;;;;0.88;84.20;100365.22;4217862;28;20026;-71
2023/11/27 07:02:14;;;;;;;;;;;;;;;0.90;84.16;100370.41;4219413;28;20019;-71
2023/11/27 07:04:17;;;;;;;;;;;;;;;0.93;84.14;100366.66;4218702;28;20031;-71
2023/11/27 07:06:19;;;;;;;;;;;;;;;0.92;84.03;100365.78;4218762;28;20015;-71
2023/11/27 07:08:21;;;;;;;;;;;;;;;0.93;84.01;100369.31;4217763;28;20015;-71
2023/11/27 07:10:25;;;;;;;;;;;;;;;0.92;83.95;100368.44;4216442;28;20023;-71
2023/11/27 07:12:26;;;;;;;;;;;;;;;0.94;83.95;100371.00;4218402;28;20022;-72
2023/11/27 07:14:28;;;;;;;;;;;;;;;0.95;84.10;100370.03;4218561;28;20026;-71
2023/11/27 07:16:31;;;;;;;;;;;;;;;0.96;84.03;100367.25;4218440;28;20015;-71
2023/11/27 07:18:34;;;;;;;;;;;;;;;0.97;83.63;100371.63;4221400;28;20007;-72
2023/11/27 07:20:36;;;;;;;;;;;;;;;0.97;83.90;100363.63;4221570;28;20015;-71
2023/11/27 07:22:38;;;;;;;;;;;;;;;0.96;83.88;100367.25;4221566;28;20002;-70
2023/11/27 07:24:40;;;;;;;;;;;;;;;0.96;83.87;100369.06;4221349;28;19935;-69
2023/11/27 07:26:42;;;;;;;;;;;;;;;0.98;83.70;100361.81;4198475;28;20003;-69
2023/11/27 07:28:43;;;;;;;;;;;;;;;0.99;83.62;100360.84;4221309;28;20015;-70
2023/11/27 07:30:46;;;;;;;;;;;;;;;0.99;83.62;100367.00;4222134;28;20379;-70
2023/11/27 07:32:47;;;;;;;;;;;;;;;0.99;83.46;100353.72;4220851;28;20018;-70
2023/11/27 07:34:50;;;;;;;;;;;;;;;1.00;83.73;100358.03;4221754;28;20039;-70
2023/11/27 07:36:52;;;;;;;;;;;;;;;1.00;83.75;100352.72;4237856;27;20014;-70
2023/11/27 07:38:53;;;;;;;;;;;;;;;1.01;83.79;100354.41;4222289;28;20036;-71
2023/11/27 07:40:56;;;;;;;;;;;;;;;1.01;83.75;100351.75;4221536;27;20010;-72
2023/11/27 07:42:58;;;;;;;;;;;;;;;1.01;83.85;100353.59;4222556;27;20023;-70
2023/11/27 07:45:00;;;;;;;;;;;;;;;1.02;83.89;100360.56;4221853;28;19928;-70
2023/11/27 07:47:02;;;;;;;;;;;;;;;1.02;83.92;100358.78;4222289;28;20030;-69
2023/11/27 07:49:04;;;;;;;;;;;;;;;1.03;83.69;100348.97;4221052;28;20046;-72
2023/11/27 07:51:08;;;;;;;;;;;;;;;1.04;83.79;100350.69;4219516;28;20048;-70
2023/11/27 07:53:11;;;;;;;;;;;;;;;1.05;83.56;100344.38;4221883;28;20369;-69
2023/11/27 07:55:13;;;;;;;;;;;;;;;1.06;83.56;100354.88;4221491;28;20016;-70
2023/11/27 07:57:17;;;;;;;;;;;;;;;1.06;83.54;100354.03;4220737;28;20019;-70
2023/11/27 07:59:19;;;;;;;;;;;;;;;1.05;83.68;100355.88;4221676;28;20043;-70
2023/11/27 08:01:20;;;;;;;;;;;;;;;1.06;83.48;100354.88;4220705;28;20011;-70
2023/11/27 08:03:22;;;;;;;;;;;;;;;1.07;83.51;100345.94;4220889;28;20018;-70
2023/11/27 08:05:27;;;;;;;;;;;;;;;1.09;83.57;100351.13;4220961;28;20386;-70
2023/11/27 08:07:33;;;;;;;;;;;;;;;1.10;83.76;100351.97;4221520;28;20035;-70
2023/11/27 08:09:36;;;;;;;;;;;;;;;1.10;83.76;100347.50;4237398;27;20022;-71
2023/11/27 08:11:38;;;;;;;;;;;;;;;1.12;83.49;100353.53;4220839;28;20480;-70
2023/11/27 08:13:42;;;;;;;;;;;;;;;1.12;83.40;100345.56;4221591;28;20023;-70
2023/11/27 08:15:45;;;;;;;;;;;;;;;1.13;83.37;100344.59;4221426;28;20030;-70
2023/11/27 08:17:48;;;;;;;;;;;;;;;1.14;83.62;100346.28;4221679;28;20016;-70
2023/11/27 08:19:50;;;;;;;;;;;;;;;1.15;83.43;100345.31;4220237;28;20030;-70
2023/11/27 08:21:51;;;;;;;;;;;;;;;1.16;83.23;100340.81;4221047;28;20055;-70
2023/11/27 08:23:54;;;;;;;;;;;;;;;1.17;83.42;100343.38;4219726;28;19924;-70
2023/11/27 08:25:56;;;;;;;;;;;;;;;1.16;83.54;100343.50;4219379;28;19963;-70
2023/11/27 08:27:58;;;;;;;;;;;;;;;1.16;83.47;100341.69;4220042;28;20038;-70
2023/11/27 08:30:03;;;;;;;;;;;;;;;1.18;83.29;100337.09;4220722;28;20003;-70
2023/11/27 08:32:05;;;;;;;;;;;;;;;1.19;83.32;100336.13;4220795;28;20026;-70
2023/11/27 08:34:07;;;;;;;;;;;;;;;1.20;83.17;100331.63;4220658;28;20050;-70
2023/11/27 08:36:11;;;;;;;;;;;;;;;1.21;83.49;100330.69;4220078;28;20018;-70
2023/11/27 08:38:11;;;;;;;;;;;;;;;1.21;83.30;100331.50;4221365;28;20014;-70
2023/11/27 08:40:16;;;;;;;;;;;;;;;1.23;83.37;100336.72;4220995;28;19997;-70
2023/11/27 08:42:18;;;;;;;;;;;;;;;1.22;83.38;100327.88;4220023;28;19972;-70
2023/11/27 08:44:20;;;;;;;;;;;;;;;1.25;83.33;100321.44;4220864;28;20026;-70
2023/11/27 08:46:22;;;;;;;;;;;;;;;1.24;83.26;100325.94;4220463;28;20405;-70
2023/11/27 08:48:25;;;;;;;;;;;;;;;1.26;83.17;100331.13;4219738;28;20015;-70
2023/11/27 08:50:32;;;;;;;;;;;;;;;1.27;83.34;100330.16;4219792;28;20051;-70
2023/11/27 08:52:33;;;;;;;;;;;;;;;1.28;83.24;100326.53;4219339;28;20026;-70
2023/11/27 08:54:35;;;;;;;;;;;;;;;1.29;83.36;100330.03;4220022;28;20007;-70
2023/11/27 08:56:41;;;;;;;;;;;;;;;1.29;83.46;100319.41;4219993;28;20027;-72
2023/11/27 08:58:43;;;;;;;;;;;;;;;1.30;83.48;100319.28;4220410;28;20357;-70
2023/11/27 09:00:45;;;;;;;;;;;;;;;1.31;83.45;100314.78;4219589;28;20446;-70
2023/11/27 09:02:46;;;;;;;;;;;;;;;1.33;83.40;100313.66;4220467;28;20026;-70
2023/11/27 09:04:49;;;;;;;;;;;;;;;1.35;83.26;100318.88;4220354;28;20024;-72
2023/11/27 09:06:51;;;;;;;;;;;;;;;1.36;82.98;100316.06;4219970;28;20016;-70
2023/11/27 09:08:53;;;;;;;;;;;;;;;1.37;83.26;100303.63;4220697;28;20544;-70
2023/11/27 09:10:55;;;;;;;;;;;;;;;1.38;83.08;100292.88;4220282;28;20413;-70
2023/11/27 09:12:58;;;;;;;;;;;;;;;1.39;83.25;100299.84;4221053;28;20032;-70
2023/11/27 09:15:00;;;;;;;;;;;;;;;1.41;83.02;100294.41;4220024;28;20461;-70
2023/11/27 09:17:02;;;;;;;;;;;;;;;1.42;83.08;100290.78;4220175;28;20019;-70
2023/11/27 09:19:04;;;;;;;;;;;;;;;1.44;82.86;100286.16;4220393;28;20445;-70
2023/11/27 09:21:06;;;;;;;;;;;;;;;1.43;83.18;100288.00;4219970;28;20014;-70
2023/11/27 09:23:11;;;;;;;;;;;;;;;1.43;83.10;100289.81;4221184;28;20019;-70
2023/11/27 09:25:15;;;;;;;;;;;;;;;1.46;82.96;100291.34;4220872;28;20031;-70
2023/11/27 09:27:17;;;;;;;;;;;;;;;1.46;83.10;100280.72;4220540;28;19928;-69
2023/11/27 09:29:21;;;;;;;;;;;;;;;1.46;82.88;100292.22;4220375;28;20015;-70
2023/11/27 09:31:23;;;;;;;;;;;;;;;1.45;83.28;100282.53;4219399;28;20026;-70
2023/11/27 09:33:25;;;;;;;;;;;;;;;1.48;83.19;100284.94;4220012;28;20019;-72
2023/11/27 09:35:26;;;;;;;;;;;;;;;1.49;83.31;100293.75;4220187;28;20576;-69
2023/11/27 09:37:29;;;;;;;;;;;;;;;1.50;83.37;100292.78;4220248;28;20585;-71
2023/11/27 09:39:31;;;;;;;;;;;;;;;1.51;83.23;100278.53;4220170;28;20022;-72
2023/11/27 09:41:35;;;;;;;;;;;;;;;1.51;83.13;100282.03;4219622;28;20023;-72
2023/11/27 09:43:38;;;;;;;;;;;;;;;1.53;83.17;100282.72;4220169;28;20010;-71
2023/11/27 09:45:42;;;;;;;;;;;;;;;1.54;82.89;100272.94;4219594;28;20421;-71
2023/11/27 09:47:47;;;;;;;;;;;;;;;1.55;82.97;100259.50;4216573;28;19925;-72
2023/11/27 09:49:50;;;;;;;;;;;;;;;1.57;83.16;100267.38;4219584;28;20039;-72
2023/11/27 09:51:53;;;;;;;;;;;;;;;1.59;82.82;100255.59;4219986;28;20029;-72
2023/11/27 09:53:54;;;;;;;;;;;;;;;1.60;83.21;100256.44;4219474;28;20010;-71
2023/11/27 09:55:57;;;;;;;;;;;;;;;1.62;83.34;100251.84;4219975;28;20362;-71
2023/11/27 09:57:59;;;;;;;;;;;;;;;1.64;83.35;100251.72;4219668;28;20070;-71
2023/11/27 10:00:01;;;;;;;;;;;;;;;1.66;83.41;100245.25;4219231;28;20034;-72
2023/11/27 10:02:04;;;;;;;;;;;;;;;1.68;83.29;100248.66;4219470;28;20432;-71
2023/11/27 10:04:08;;;;;;;;;;;;;;;1.69;83.54;100237.00;4201901;28;20039;-72
2023/11/27 10:06:11;;;;;;;;;;;;;;;1.69;83.47;100234.34;4220240;27;20015;-72
2023/11/27 10:08:13;;;;;;;;;;;;;;;1.72;83.52;100236.75;4219438;28;19973;-72
2023/11/27 10:10:16;;;;;;;;;;;;;;;1.74;83.47;100233.94;4218976;28;20011;-72
2023/11/27 10:12:24;;;;;;;;;;;;;;;1.77;83.51;100237.22;4219626;28;20043;-72
2023/11/27 10:14:27;;;;;;;;;;;;;;;1.78;83.69;100235.38;4219326;28;20019;-72
2023/11/27 10:16:29;;;;;;;;;;;;;;;1.80;83.14;100231.63;4218843;28;20014;-72
2023/11/27 10:18:32;;;;;;;;;;;;;;;1.81;83.60;100235.13;4218258;27;20014;-72
2023/11/27 10:20:35;;;;;;;;;;;;;;;1.84;83.62;100226.88;4218255;28;20011;-71
2023/11/27 10:22:37;;;;;;;;;;;;;;;1.86;83.32;100214.25;4201263;28;20015;-70
2023/11/27 10:24:39;;;;;;;;;;;;;;;1.87;83.43;100209.78;4218544;28;20006;-71
2023/11/27 10:26:42;;;;;;;;;;;;;;;1.89;83.49;100213.97;4219681;28;20035;-71
2023/11/27 10:28:45;;;;;;;;;;;;;;;1.92;83.19;100213.72;4219336;28;20461;-70
2023/11/27 10:30:49;;;;;;;;;;;;;;;1.94;83.11;100205.59;4218778;28;20014;-71
2023/11/27 10:32:51;;;;;;;;;;;;;;;1.96;82.53;100201.00;4218627;28;20018;-69
2023/11/27 10:34:54;;;;;;;;;;;;;;;2.00;82.51;100201.56;4220187;28;20018;-70
2023/11/27 10:36:57;;;;;;;;;;;;;;;2.02;82.62;100199.59;4219142;28;20023;-70
2023/11/27 10:39:05;;;;;;;;;;;;;;;2.03;82.34;100191.47;4219115;28;20364;-71